createdAt,value
2022-11-12T00:00:59.130Z,4.70
2022-11-12T00:03:26.203Z,4.80
2022-11-12T00:05:53.457Z,4.80
2022-11-12T00:08:20.990Z,4.80
2022-11-12T00:10:48.014Z,4.80
2022-11-12T00:13:15.360Z,4.80
2022-11-12T00:15:42.625Z,4.80
2022-11-12T00:18:09.832Z,4.60
2022-11-12T00:20:36.878Z,4.70
2022-11-12T00:23:03.776Z,4.70
2022-11-12T00:25:30.782Z,4.70
2022-11-12T00:28:08.304Z,4.70
2022-11-12T00:30:37.353Z,4.90
2022-11-12T00:33:05.601Z,4.90
2022-11-12T00:35:33.343Z,4.70
2022-11-12T00:38:01.313Z,4.70
2022-11-12T00:40:29.172Z,4.80
2022-11-12T00:42:56.022Z,4.80
2022-11-12T00:45:23.459Z,4.80
2022-11-12T00:47:50.472Z,4.70
2022-11-12T00:50:17.401Z,4.70
2022-11-12T00:52:44.231Z,4.50
2022-11-12T00:55:11.386Z,4.40
2022-11-12T00:57:38.189Z,4.50
2022-11-12T01:00:07.653Z,4.50
2022-11-12T01:02:42.229Z,4.50
2022-11-12T01:05:11.283Z,4.40
2022-11-12T01:07:38.093Z,4.40
2022-11-12T01:10:05.643Z,4.40
2022-11-12T01:12:32.915Z,4.70
2022-11-12T01:14:59.989Z,4.60
2022-11-12T01:17:26.780Z,4.50
2022-11-12T01:19:53.617Z,4.40
2022-11-12T01:22:20.482Z,4.30
2022-11-12T01:24:47.266Z,4.30
2022-11-12T01:27:14.166Z,4.70
2022-11-12T01:29:41.264Z,4.50
2022-11-12T01:32:08.322Z,4.40
2022-11-12T01:34:35.289Z,4.30
2022-11-12T01:37:02.148Z,4.30
2022-11-12T01:39:28.956Z,4.30
2022-11-12T01:41:55.821Z,4.40
2022-11-12T01:44:26.831Z,4.30
2022-11-12T01:47:02.531Z,4.30
2022-11-12T01:49:50.302Z,4.20
2022-11-12T01:52:35.318Z,4.20
2022-11-12T01:55:06.982Z,4.20
2022-11-12T01:57:40.466Z,4.30
2022-11-12T02:00:11.149Z,4.30
2022-11-12T02:02:39.300Z,4.30
2022-11-12T02:05:11.060Z,4.30
2022-11-12T02:07:40.843Z,4.30
2022-11-12T02:10:09.173Z,4.40
2022-11-12T02:12:55.462Z,4.40
2022-11-12T02:15:22.366Z,4.40
2022-11-12T02:17:49.237Z,4.40
2022-11-12T02:20:18.353Z,4.40
2022-11-12T02:22:45.562Z,4.30
2022-11-12T02:25:21.125Z,4.30
2022-11-12T02:27:51.678Z,4.20
2022-11-12T02:30:31.336Z,4.20
2022-11-12T02:32:58.833Z,4.20
2022-11-12T02:35:25.669Z,4.40
2022-11-12T02:37:52.460Z,4.50
2022-11-12T02:40:19.292Z,4.40
2022-11-12T02:42:46.092Z,4.40
2022-11-12T02:45:13.226Z,4.40
2022-11-12T02:47:40.135Z,4.40
2022-11-12T02:50:07.463Z,4.30
2022-11-12T02:52:34.930Z,4.50
2022-11-12T02:55:01.940Z,4.50
2022-11-12T02:57:30.363Z,4.30
2022-11-12T02:59:57.269Z,4.30
2022-11-12T03:02:24.020Z,4.20
2022-11-12T03:04:50.952Z,4.50
2022-11-12T03:07:17.916Z,4.50
2022-11-12T03:09:46.689Z,4.40
2022-11-12T03:12:13.500Z,4.20
2022-11-12T03:14:40.393Z,4.10
2022-11-12T03:17:07.176Z,4.10
2022-11-12T03:19:33.985Z,4.00
2022-11-12T03:22:00.793Z,4.00
2022-11-12T03:24:28.232Z,3.90
2022-11-12T03:26:55.121Z,3.90
2022-11-12T03:29:21.885Z,3.90
2022-11-12T03:31:48.698Z,3.80
2022-11-12T03:34:15.537Z,3.90
2022-11-12T03:36:42.368Z,3.90
2022-11-12T03:39:09.112Z,3.90
2022-11-12T03:41:35.948Z,3.90
2022-11-12T03:44:02.858Z,3.90
2022-11-12T03:46:29.677Z,3.90
2022-11-12T03:48:56.684Z,3.90
2022-11-12T03:51:23.706Z,3.90
2022-11-12T03:53:50.536Z,3.90
2022-11-12T03:56:17.376Z,3.80
2022-11-12T03:58:44.269Z,3.80
2022-11-12T04:01:11.173Z,3.80
2022-11-12T04:03:38.059Z,3.80
2022-11-12T04:06:23.421Z,3.80
2022-11-12T04:08:50.242Z,3.80
2022-11-12T04:11:18.140Z,3.80
2022-11-12T04:13:48.046Z,3.70
2022-11-12T04:16:38.540Z,3.80
2022-11-12T04:19:25.534Z,3.70
2022-11-12T04:22:01.152Z,3.70
2022-11-12T04:25:13.860Z,3.70
2022-11-12T04:27:42.555Z,3.80
2022-11-12T04:30:19.538Z,3.80
2022-11-12T04:32:54.530Z,3.80
2022-11-12T04:35:23.368Z,3.80
2022-11-12T04:37:50.644Z,3.80
2022-11-12T04:40:38.012Z,3.90
2022-11-12T04:43:25.233Z,3.80
2022-11-12T04:45:54.036Z,3.80
2022-11-12T04:48:23.125Z,3.90
2022-11-12T04:51:01.924Z,3.90
2022-11-12T04:53:29.906Z,4.00
2022-11-12T04:55:58.615Z,4.00
2022-11-12T04:58:26.000Z,4.00
2022-11-12T05:00:53.334Z,3.90
2022-11-12T05:03:20.548Z,3.80
2022-11-12T05:05:47.401Z,3.80
2022-11-12T05:08:14.199Z,3.80
2022-11-12T05:10:40.956Z,3.60
2022-11-12T05:13:07.731Z,3.60
2022-11-12T05:15:34.594Z,3.60
2022-11-12T05:18:01.384Z,3.70
2022-11-12T05:20:28.249Z,3.70
2022-11-12T05:23:06.382Z,3.80
2022-11-12T05:25:35.654Z,3.90
2022-11-12T05:28:02.432Z,3.90
2022-11-12T05:30:29.232Z,3.90
2022-11-12T05:32:56.034Z,3.90
2022-11-12T05:35:22.857Z,3.90
2022-11-12T05:37:49.646Z,4.20
2022-11-12T05:40:16.686Z,4.20
2022-11-12T05:42:45.479Z,4.10
2022-11-12T05:45:14.107Z,3.90
2022-11-12T05:47:40.925Z,4.10
2022-11-12T05:50:08.361Z,4.00
2022-11-12T05:52:35.223Z,3.80
2022-11-12T05:55:01.983Z,3.80
2022-11-12T05:57:28.825Z,3.80
2022-11-12T05:59:55.634Z,3.80
2022-11-12T06:02:22.534Z,4.00
2022-11-12T06:04:49.417Z,4.00
2022-11-12T06:07:16.259Z,3.90
2022-11-12T06:09:43.238Z,3.90
2022-11-12T06:12:10.076Z,3.90
2022-11-12T06:14:37.292Z,3.80
2022-11-12T06:17:04.096Z,3.70
2022-11-12T06:19:30.892Z,3.80
2022-11-12T06:21:57.842Z,3.90
2022-11-12T06:24:24.999Z,3.80
2022-11-12T06:26:51.827Z,3.80
2022-11-12T06:29:18.669Z,3.80
2022-11-12T06:31:45.500Z,3.80
2022-11-12T06:34:12.651Z,3.70
2022-11-12T06:36:39.690Z,3.60
2022-11-12T06:39:06.544Z,3.70
2022-11-12T06:41:33.730Z,3.70
2022-11-12T06:44:00.536Z,3.70
2022-11-12T06:46:27.382Z,3.60
2022-11-12T06:48:54.207Z,3.60
2022-11-12T06:51:21.880Z,3.50
2022-11-12T06:53:49.460Z,3.50
2022-11-12T06:56:16.478Z,3.60
2022-11-12T06:58:43.748Z,3.60
2022-11-12T07:01:13.430Z,3.60
2022-11-12T07:03:41.937Z,3.60
2022-11-12T07:06:18.900Z,3.60
2022-11-12T07:08:51.368Z,3.60
2022-11-12T07:11:19.902Z,3.70
2022-11-12T07:13:47.510Z,3.70
2022-11-12T07:16:18.840Z,3.60
2022-11-12T07:18:50.025Z,3.70
2022-11-12T07:21:19.432Z,3.70
2022-11-12T07:23:47.534Z,3.60
2022-11-12T07:26:20.525Z,3.70
2022-11-12T07:28:48.202Z,3.70
2022-11-12T07:31:16.489Z,3.80
2022-11-12T07:33:44.302Z,3.30
2022-11-12T07:36:13.816Z,3.60
2022-11-12T07:38:42.075Z,3.60
2022-11-12T07:41:16.306Z,3.60
2022-11-12T07:43:46.711Z,3.70
2022-11-12T07:46:19.599Z,3.70
2022-11-12T07:48:46.752Z,3.80
2022-11-12T07:51:14.011Z,3.90
2022-11-12T07:53:42.063Z,3.90
2022-11-12T07:56:14.286Z,3.90
2022-11-12T07:58:41.419Z,3.80
2022-11-12T08:01:09.558Z,3.90
2022-11-12T08:03:36.521Z,3.90
2022-11-12T08:06:04.334Z,4.00
2022-11-12T08:08:31.112Z,4.10
2022-11-12T08:10:59.287Z,4.20
2022-11-12T08:13:26.124Z,4.30
2022-11-12T08:15:53.093Z,4.20
2022-11-12T08:18:23.063Z,4.20
2022-11-12T08:20:49.989Z,4.20
2022-11-12T08:23:16.991Z,4.30
2022-11-12T08:25:43.729Z,4.30
2022-11-12T08:28:10.795Z,4.30
2022-11-12T08:30:37.613Z,4.30
2022-11-12T08:33:05.931Z,4.20
2022-11-12T08:35:33.908Z,4.10
2022-11-12T08:38:01.431Z,4.10
2022-11-12T08:40:29.895Z,4.10
2022-11-12T08:42:58.391Z,4.10
2022-11-12T08:45:25.500Z,4.20
2022-11-12T08:47:52.628Z,4.20
2022-11-12T08:50:19.768Z,4.20
2022-11-12T08:52:46.817Z,4.30
2022-11-12T08:55:13.663Z,4.40
2022-11-12T08:57:44.910Z,4.40
2022-11-12T09:00:13.624Z,4.50
2022-11-12T09:02:40.451Z,4.60
2022-11-12T09:05:07.648Z,4.50
2022-11-12T09:07:50.824Z,4.60
2022-11-12T09:10:18.248Z,4.60
2022-11-12T09:12:45.093Z,4.60
2022-11-12T09:18:00.767Z,4.70
2022-11-12T09:20:28.893Z,4.70
2022-11-12T09:23:00.835Z,4.80
2022-11-12T09:25:28.125Z,4.70
2022-11-12T09:27:55.330Z,4.90
2022-11-12T09:30:22.557Z,4.90
2022-11-12T09:32:49.431Z,5.00
2022-11-12T09:35:16.382Z,5.10
2022-11-12T09:37:43.216Z,5.00
2022-11-12T09:40:17.991Z,5.10
2022-11-12T09:42:51.435Z,5.30
2022-11-12T09:45:38.704Z,5.40
2022-11-12T09:48:11.477Z,5.40
2022-11-12T09:50:42.892Z,5.50
2022-11-12T09:53:21.826Z,5.60
2022-11-12T09:55:50.353Z,5.70
2022-11-12T09:58:19.490Z,5.60
2022-11-12T10:00:56.448Z,5.80
2022-11-12T10:03:52.579Z,5.90
2022-11-12T10:06:24.828Z,6.00
2022-11-12T10:09:16.393Z,6.10
2022-11-12T10:12:22.068Z,6.20
2022-11-12T10:15:23.709Z,6.20
2022-11-12T10:18:02.773Z,6.00
2022-11-12T10:20:42.157Z,6.10
2022-11-12T10:23:25.214Z,6.20
2022-11-12T10:25:57.315Z,6.00
2022-11-12T10:28:24.453Z,5.90
2022-11-12T10:30:55.782Z,5.80
2022-11-12T10:33:22.759Z,5.50
2022-11-12T10:35:51.204Z,5.50
2022-11-12T10:38:22.820Z,5.70
2022-11-12T10:40:49.590Z,5.80
2022-11-12T10:43:16.339Z,5.80
2022-11-12T10:45:48.258Z,5.90
2022-11-12T10:48:32.575Z,5.70
2022-11-12T10:51:00.065Z,6.00
2022-11-12T10:53:40.424Z,6.20
2022-11-12T10:56:30.208Z,6.30
2022-11-12T10:59:24.231Z,6.20
2022-11-12T11:01:59.692Z,6.00
2022-11-12T11:04:35.953Z,5.90
2022-11-12T11:07:23.227Z,6.10
2022-11-12T11:10:00.546Z,5.90
2022-11-12T11:12:34.687Z,6.10
2022-11-12T11:15:21.289Z,6.30
2022-11-12T11:17:48.193Z,6.50
2022-11-12T11:20:19.062Z,6.80
2022-11-12T11:22:59.882Z,6.70
2022-11-12T11:25:28.969Z,6.30
2022-11-12T11:28:16.964Z,6.20
2022-11-12T11:30:56.765Z,6.30
2022-11-12T11:33:29.541Z,6.30
2022-11-12T11:36:27.198Z,6.20
2022-11-12T11:39:03.875Z,6.30
2022-11-12T11:41:50.937Z,6.50
2022-11-12T11:44:33.020Z,6.60
2022-11-12T11:47:22.392Z,6.70
2022-11-12T11:50:01.946Z,6.60
2022-11-12T11:52:43.687Z,6.50
2022-11-12T11:55:44.669Z,6.70
2022-11-12T11:58:14.137Z,6.60
2022-11-12T12:01:12.999Z,6.70
2022-11-12T12:04:13.824Z,6.80
2022-11-12T12:07:11.886Z,7.10
2022-11-12T12:09:44.749Z,7.10
2022-11-12T12:12:23.970Z,7.00
2022-11-12T12:15:03.744Z,6.90
2022-11-12T12:18:05.132Z,7.10
2022-11-12T12:20:51.688Z,7.10
2022-11-12T12:23:40.247Z,7.30
2022-11-12T12:26:14.437Z,7.40
2022-11-12T12:28:53.682Z,7.50
2022-11-12T12:31:25.257Z,7.40
2022-11-12T12:34:06.320Z,7.50
2022-11-12T12:36:41.760Z,7.30
2022-11-12T12:39:15.519Z,7.30
2022-11-12T12:42:15.685Z,7.40
2022-11-12T12:45:05.918Z,7.50
2022-11-12T12:47:38.837Z,7.60
2022-11-12T12:50:14.340Z,7.70
2022-11-12T12:53:00.232Z,7.80
2022-11-12T12:55:50.510Z,7.80
2022-11-12T12:58:26.335Z,7.60
2022-11-12T13:01:04.479Z,7.50
2022-11-12T13:03:45.946Z,7.40
2022-11-12T13:06:25.072Z,7.40
2022-11-12T13:09:06.715Z,7.30
2022-11-12T13:12:00.752Z,7.30
2022-11-12T13:14:36.694Z,7.30
2022-11-12T13:17:10.911Z,7.20
2022-11-12T13:19:53.052Z,7.20
2022-11-12T13:22:19.855Z,7.20
2022-11-12T13:25:10.599Z,7.10
2022-11-12T13:27:48.952Z,7.00
2022-11-12T13:30:18.346Z,7.10
2022-11-12T13:32:48.077Z,7.00
2022-11-12T13:35:31.141Z,7.00
2022-11-12T13:38:06.554Z,7.00
2022-11-12T13:40:38.872Z,7.00
2022-11-12T13:43:24.522Z,7.00
2022-11-12T13:46:11.132Z,6.90
2022-11-12T13:48:49.213Z,6.80
2022-11-12T13:51:20.745Z,6.70
2022-11-12T13:53:47.589Z,6.60
2022-11-12T13:56:29.145Z,6.60
2022-11-12T13:59:08.004Z,6.50
2022-11-12T14:01:34.873Z,6.60
2022-11-12T14:04:01.755Z,6.50
2022-11-12T14:06:34.736Z,6.40
2022-11-12T14:09:13.511Z,6.40
2022-11-12T14:12:15.666Z,6.40
2022-11-12T14:15:04.060Z,6.30
2022-11-12T14:17:49.127Z,6.30
2022-11-12T14:20:38.425Z,6.20
2022-11-12T14:23:24.441Z,6.20
2022-11-12T14:26:04.181Z,6.30
2022-11-12T14:28:39.756Z,6.30
2022-11-12T14:31:23.207Z,6.10
2022-11-12T14:33:50.045Z,5.90
2022-11-12T14:36:19.103Z,5.80
2022-11-12T14:38:52.210Z,5.70
2022-11-12T14:41:24.796Z,5.90
2022-11-12T14:44:10.944Z,6.00
2022-11-12T14:46:54.094Z,5.80
2022-11-12T14:49:34.378Z,5.90
2022-11-12T14:52:12.632Z,6.00
2022-11-12T14:54:52.126Z,5.80
2022-11-12T14:57:24.856Z,5.70
2022-11-12T14:59:51.758Z,5.70
2022-11-12T15:02:42.294Z,5.60
2022-11-12T15:05:19.274Z,5.50
2022-11-12T15:07:59.352Z,5.50
2022-11-12T15:10:44.082Z,5.30
2022-11-12T15:13:10.977Z,5.30
2022-11-12T15:15:40.854Z,5.30
2022-11-12T15:18:22.763Z,5.30
2022-11-12T15:21:18.118Z,5.20
2022-11-12T15:23:56.442Z,5.10
2022-11-12T15:26:35.307Z,5.10
2022-11-12T15:29:23.165Z,5.10
2022-11-12T15:31:58.803Z,5.10
2022-11-12T15:34:33.687Z,5.10
2022-11-12T15:37:05.544Z,5.10
2022-11-12T15:39:35.868Z,5.10
2022-11-12T15:42:06.739Z,5.20
2022-11-12T15:44:36.455Z,5.20
2022-11-12T15:47:04.001Z,5.20
2022-11-12T15:49:30.907Z,5.20
2022-11-12T15:51:57.810Z,5.20
2022-11-12T15:54:24.642Z,5.20
2022-11-12T15:56:52.159Z,5.10
2022-11-12T15:59:19.245Z,5.20
2022-11-12T16:01:46.290Z,5.20
2022-11-12T16:04:13.760Z,5.10
2022-11-12T16:06:40.718Z,5.10
2022-11-12T16:09:07.545Z,5.00
2022-11-12T16:11:37.501Z,5.00
2022-11-12T16:14:06.846Z,5.00
2022-11-12T16:16:34.634Z,4.90
2022-11-12T16:19:01.780Z,5.00
2022-11-12T16:21:28.640Z,4.90
2022-11-12T16:23:55.459Z,5.00
2022-11-12T16:26:29.237Z,5.00
2022-11-12T16:28:57.464Z,4.90
2022-11-12T16:31:24.504Z,4.90
2022-11-12T16:33:51.334Z,4.90
2022-11-12T16:36:18.280Z,5.10
2022-11-12T16:38:46.542Z,5.00
2022-11-12T16:41:14.730Z,5.00
2022-11-12T16:43:41.815Z,4.80
2022-11-12T16:46:28.907Z,4.90
2022-11-12T16:48:55.940Z,4.90
2022-11-12T16:51:23.237Z,4.80
2022-11-12T16:53:50.170Z,4.80
2022-11-12T16:56:19.989Z,4.80
2022-11-12T16:58:48.477Z,4.80
2022-11-12T17:01:28.396Z,4.90
2022-11-12T17:03:56.985Z,4.90
2022-11-12T17:06:32.135Z,4.90
2022-11-12T17:08:59.001Z,4.90
2022-11-12T17:11:25.914Z,4.90
2022-11-12T17:13:52.792Z,4.70
2022-11-12T17:16:19.660Z,4.70
2022-11-12T17:18:46.594Z,4.60
2022-11-12T17:21:18.400Z,4.60
2022-11-12T17:23:45.418Z,4.60
2022-11-12T17:26:14.741Z,4.60
2022-11-12T17:28:41.856Z,4.70
2022-11-12T17:31:14.416Z,4.70
2022-11-12T17:33:49.819Z,4.70
2022-11-12T17:36:19.236Z,4.70
2022-11-12T17:38:46.495Z,4.60
2022-11-12T17:41:14.011Z,4.70
2022-11-12T17:43:41.226Z,4.70
2022-11-12T17:46:09.708Z,5.00
2022-11-12T17:48:37.820Z,5.00
2022-11-12T17:51:07.978Z,4.90
2022-11-12T17:53:36.105Z,4.90
2022-11-12T17:56:03.749Z,4.90
2022-11-12T17:58:30.609Z,4.70
2022-11-12T18:01:05.312Z,4.60
2022-11-12T18:03:32.286Z,4.60
2022-11-12T18:06:00.478Z,4.60
2022-11-12T18:08:27.320Z,4.70
2022-11-12T18:10:54.151Z,4.70
2022-11-12T18:13:21.211Z,4.70
2022-11-12T18:15:48.120Z,4.60
2022-11-12T18:18:14.994Z,4.70
2022-11-12T18:20:42.601Z,4.60
2022-11-12T18:23:09.827Z,4.50
2022-11-12T18:25:38.373Z,4.50
2022-11-12T18:28:06.658Z,4.60
2022-11-12T18:30:34.920Z,4.60
2022-11-12T18:33:02.191Z,5.40
2022-11-12T18:35:30.129Z,5.50
2022-11-12T18:37:57.517Z,5.50
2022-11-12T18:40:24.504Z,5.00
2022-11-12T18:42:51.476Z,4.70
2022-11-12T18:45:18.636Z,4.90
2022-11-12T18:47:45.481Z,4.80
2022-11-12T18:50:12.525Z,4.50
2022-11-12T18:52:39.466Z,4.50
2022-11-12T18:55:06.883Z,4.50
2022-11-12T18:57:33.752Z,4.50
2022-11-12T19:00:00.651Z,4.40
2022-11-12T19:02:27.520Z,4.40
2022-11-12T19:04:55.397Z,4.40
2022-11-12T19:07:22.278Z,4.40
2022-11-12T19:09:49.247Z,4.40
2022-11-12T19:12:15.968Z,4.40
2022-11-12T19:14:45.902Z,4.40
2022-11-12T19:17:12.731Z,4.40
2022-11-12T19:19:39.560Z,4.40
2022-11-12T19:22:06.436Z,4.30
2022-11-12T19:24:33.366Z,4.30
2022-11-12T19:27:00.334Z,4.40
2022-11-12T19:29:27.237Z,4.90
2022-11-12T19:31:54.082Z,4.60
2022-11-12T19:34:20.888Z,4.30
2022-11-12T19:36:48.461Z,4.30
2022-11-12T19:39:20.049Z,4.30
2022-11-12T19:41:46.846Z,4.20
2022-11-12T19:44:13.700Z,4.10
2022-11-12T19:46:40.611Z,4.00
2022-11-12T19:49:09.732Z,4.00
2022-11-12T19:51:36.525Z,4.00
2022-11-12T19:54:04.504Z,4.10
2022-11-12T19:56:33.786Z,4.10
2022-11-12T19:59:00.899Z,4.10
2022-11-12T20:01:27.874Z,4.00
2022-11-12T20:03:54.816Z,3.90
2022-11-12T20:06:25.613Z,4.00
2022-11-12T20:08:52.647Z,4.00
2022-11-12T20:11:19.946Z,4.10
2022-11-12T20:13:46.902Z,4.00
2022-11-12T20:16:22.226Z,3.90
2022-11-12T20:19:01.799Z,3.90
2022-11-12T20:21:28.669Z,3.80
2022-11-12T20:23:55.674Z,3.70
2022-11-12T20:26:22.770Z,3.70
2022-11-12T20:28:49.518Z,3.70
2022-11-12T20:31:20.932Z,3.70
2022-11-12T20:33:49.945Z,3.70
2022-11-12T20:36:22.028Z,3.80
2022-11-12T20:38:53.510Z,3.80
2022-11-12T20:41:25.573Z,3.90
2022-11-12T20:43:54.357Z,3.90
2022-11-12T20:46:21.666Z,4.00
2022-11-12T20:48:48.740Z,3.90
2022-11-12T20:51:24.116Z,3.90
2022-11-12T20:53:57.398Z,3.90
2022-11-12T20:56:27.382Z,3.80
2022-11-12T20:58:54.648Z,3.80
2022-11-12T21:01:23.255Z,3.70
2022-11-12T21:03:50.445Z,3.60
2022-11-12T21:06:19.968Z,3.50
2022-11-12T21:08:47.150Z,3.50
2022-11-12T21:11:17.282Z,3.40
2022-11-12T21:13:44.326Z,3.40
2022-11-12T21:16:12.949Z,3.20
2022-11-12T21:18:40.532Z,3.20
2022-11-12T21:21:13.534Z,3.40
2022-11-12T21:23:43.600Z,3.40
2022-11-12T21:26:21.377Z,3.10
2022-11-12T21:28:53.389Z,3.40
2022-11-12T21:31:30.820Z,3.30
2022-11-12T21:34:00.454Z,3.40
2022-11-12T21:36:28.320Z,3.50
2022-11-12T21:38:55.402Z,3.30
2022-11-12T21:41:27.163Z,3.30
2022-11-12T21:43:54.571Z,3.40
2022-11-12T21:46:23.950Z,3.40
2022-11-12T21:48:55.120Z,3.30
2022-11-12T21:51:32.965Z,3.10
2022-11-12T21:54:05.540Z,3.30
2022-11-12T21:56:34.261Z,3.30
2022-11-12T21:59:04.099Z,3.30
2022-11-12T22:01:34.153Z,3.20
2022-11-12T22:04:04.801Z,3.30
2022-11-12T22:06:31.775Z,3.20
2022-11-12T22:08:58.725Z,3.30
2022-11-12T22:11:26.606Z,3.20
2022-11-12T22:13:53.692Z,3.20
2022-11-12T22:16:26.067Z,3.20
2022-11-12T22:18:54.873Z,3.30
2022-11-12T22:21:38.396Z,3.30
2022-11-12T22:24:07.560Z,3.20
2022-11-12T22:26:37.615Z,3.20
2022-11-12T22:29:04.833Z,3.20
2022-11-12T22:31:33.685Z,3.20
2022-11-12T22:34:02.438Z,3.20
2022-11-12T22:36:31.037Z,3.20
2022-11-12T22:38:58.419Z,3.10
2022-11-12T22:41:27.654Z,3.10
2022-11-12T22:43:56.689Z,3.10
2022-11-12T22:46:25.837Z,3.00
2022-11-12T22:48:53.168Z,3.00
2022-11-12T22:51:25.379Z,3.00
2022-11-12T22:54:10.421Z,2.90
2022-11-12T22:56:39.126Z,2.90
2022-11-12T22:59:05.962Z,2.90
2022-11-12T23:01:35.258Z,2.90
2022-11-12T23:04:05.376Z,2.80
2022-11-12T23:06:32.799Z,2.80
2022-11-12T23:09:00.522Z,2.80
2022-11-12T23:11:28.028Z,2.80
2022-11-12T23:13:55.919Z,2.80
2022-11-12T23:16:31.852Z,2.80
2022-11-12T23:18:59.576Z,3.00
2022-11-12T23:21:28.404Z,2.60
2022-11-12T23:23:58.013Z,2.80
2022-11-12T23:26:30.958Z,2.70
2022-11-12T23:28:58.112Z,2.70
2022-11-12T23:31:27.767Z,2.80
2022-11-12T23:33:57.682Z,2.70
2022-11-12T23:36:26.483Z,2.70
2022-11-12T23:38:54.237Z,2.70
2022-11-12T23:41:23.162Z,2.80
2022-11-12T23:43:50.500Z,2.80
2022-11-12T23:46:17.414Z,2.90
2022-11-12T23:48:44.772Z,2.90
2022-11-12T23:51:20.529Z,2.90
2022-11-12T23:53:48.876Z,2.70
2022-11-12T23:56:18.131Z,2.70
2022-11-12T23:58:45.356Z,2.70
